createdAt,value
2018-12-20T00:01:52.165Z,92.90
2018-12-20T00:04:20.506Z,92.90
2018-12-20T00:06:48.964Z,93.10
2018-12-20T00:09:17.710Z,93.00
2018-12-20T00:11:46.045Z,93.00
2018-12-20T00:14:14.421Z,93.00
2018-12-20T00:16:42.883Z,93.10
2018-12-20T00:19:11.369Z,93.00
2018-12-20T00:21:39.949Z,93.30
2018-12-20T00:24:08.527Z,93.00
2018-12-20T00:26:36.980Z,93.10
2018-12-20T00:29:05.333Z,93.10
2018-12-20T00:31:33.768Z,93.10
2018-12-20T00:34:02.457Z,93.10
2018-12-20T00:36:30.939Z,93.00
2018-12-20T00:38:59.397Z,93.00
2018-12-20T00:41:27.744Z,92.90
2018-12-20T00:43:56.088Z,92.90
2018-12-20T00:46:24.444Z,92.90
2018-12-20T00:48:52.804Z,93.00
2018-12-20T00:51:21.271Z,92.90
2018-12-20T00:53:50.126Z,92.80
2018-12-20T00:56:18.517Z,92.70
2018-12-20T00:58:47.323Z,92.80
2018-12-20T01:01:16.104Z,92.50
2018-12-20T01:03:44.592Z,92.70
2018-12-20T01:06:13.037Z,92.60
2018-12-20T01:08:41.660Z,92.50
2018-12-20T01:11:10.205Z,92.50
2018-12-20T01:13:38.565Z,92.40
2018-12-20T01:16:06.987Z,92.40
2018-12-20T01:18:35.378Z,92.30
2018-12-20T01:21:03.777Z,92.40
2018-12-20T01:23:32.306Z,92.40
2018-12-20T01:26:00.717Z,92.40
2018-12-20T01:28:29.142Z,92.40
2018-12-20T01:30:57.591Z,92.20
2018-12-20T01:33:26.122Z,92.30
2018-12-20T01:35:54.535Z,92.30
2018-12-20T01:38:23.063Z,92.30
2018-12-20T01:40:51.566Z,92.30
2018-12-20T01:43:20.082Z,92.30
2018-12-20T01:45:48.422Z,92.20
2018-12-20T01:48:16.810Z,92.30
2018-12-20T01:50:45.299Z,92.30
2018-12-20T01:53:13.878Z,92.30
2018-12-20T01:55:42.592Z,92.30
2018-12-20T01:58:10.995Z,92.30
2018-12-20T02:00:39.427Z,92.20
2018-12-20T02:03:07.780Z,92.30
2018-12-20T02:05:36.124Z,92.30
2018-12-20T02:08:04.468Z,92.20
2018-12-20T02:10:32.898Z,92.20
2018-12-20T02:13:01.305Z,92.20
2018-12-20T02:15:30.652Z,92.20
2018-12-20T02:17:59.268Z,92.20
2018-12-20T02:20:28.103Z,92.30
2018-12-20T02:22:56.515Z,92.20
2018-12-20T02:25:25.029Z,92.20
2018-12-20T02:27:53.606Z,92.30
2018-12-20T02:30:22.217Z,92.30
2018-12-20T02:32:50.992Z,92.30
2018-12-20T02:35:19.557Z,92.30
2018-12-20T02:37:48.301Z,92.30
2018-12-20T02:40:16.660Z,92.40
2018-12-20T02:42:45.120Z,92.40
2018-12-20T02:45:13.881Z,92.30
2018-12-20T02:47:42.476Z,92.30
2018-12-20T02:50:11.420Z,92.40
2018-12-20T02:52:40.318Z,92.40
2018-12-20T02:55:08.862Z,92.50
2018-12-20T02:57:37.396Z,92.50
2018-12-20T03:00:07.271Z,92.40
2018-12-20T03:02:35.827Z,92.40
2018-12-20T03:05:04.897Z,92.50
2018-12-20T03:07:33.379Z,92.50
2018-12-20T03:10:01.791Z,92.50
2018-12-20T03:12:30.310Z,92.50
2018-12-20T03:14:58.731Z,92.50
2018-12-20T03:17:27.077Z,92.60
2018-12-20T03:19:55.415Z,92.50
2018-12-20T03:22:23.909Z,92.40
2018-12-20T03:24:52.579Z,92.50
2018-12-20T03:27:21.102Z,92.50
2018-12-20T03:29:49.625Z,92.40
2018-12-20T03:32:18.043Z,92.50
2018-12-20T03:34:46.420Z,92.50
2018-12-20T03:37:14.902Z,92.50
2018-12-20T03:39:43.321Z,92.40
2018-12-20T03:42:12.297Z,92.50
2018-12-20T03:44:40.788Z,92.40
2018-12-20T03:47:09.405Z,92.40
2018-12-20T03:49:38.043Z,92.40
2018-12-20T03:52:06.563Z,92.40
2018-12-20T03:54:35.358Z,92.40
2018-12-20T03:57:04.142Z,92.50
2018-12-20T03:59:32.586Z,92.40
2018-12-20T04:02:01.147Z,92.40
2018-12-20T04:04:29.519Z,92.40
2018-12-20T04:06:57.904Z,92.40
2018-12-20T04:09:26.588Z,92.40
2018-12-20T04:11:55.085Z,92.50
2018-12-20T04:14:23.502Z,92.40
2018-12-20T04:16:52.107Z,92.40
2018-12-20T04:19:20.705Z,92.40
2018-12-20T04:21:49.094Z,92.40
2018-12-20T04:24:17.797Z,92.40
2018-12-20T04:26:46.307Z,92.30
2018-12-20T04:29:14.734Z,92.30
2018-12-20T04:31:43.429Z,92.30
2018-12-20T04:34:12.132Z,92.30
2018-12-20T04:36:40.638Z,92.20
2018-12-20T04:39:09.033Z,92.20
2018-12-20T04:41:37.454Z,92.20
2018-12-20T04:44:06.088Z,92.20
2018-12-20T04:46:34.591Z,92.20
2018-12-20T04:49:03.139Z,92.20
2018-12-20T04:51:31.920Z,92.50
2018-12-20T04:54:00.537Z,92.20
2018-12-20T04:56:28.952Z,92.20
2018-12-20T04:58:57.359Z,92.30
2018-12-20T05:01:25.762Z,92.20
2018-12-20T05:03:54.345Z,92.20
2018-12-20T05:06:22.803Z,92.30
2018-12-20T05:08:51.376Z,92.20
2018-12-20T05:11:19.785Z,92.20
2018-12-20T05:13:48.199Z,92.20
2018-12-20T05:16:16.613Z,92.10
2018-12-20T05:18:45.029Z,92.10
2018-12-20T05:21:13.602Z,92.10
2018-12-20T05:23:42.443Z,92.20
2018-12-20T05:26:10.962Z,92.20
2018-12-20T05:28:39.369Z,92.20
2018-12-20T05:31:08.805Z,92.30
2018-12-20T05:33:37.418Z,92.30
2018-12-20T05:36:05.842Z,92.30
2018-12-20T05:38:34.314Z,92.40
2018-12-20T05:41:02.855Z,92.40
2018-12-20T05:43:31.234Z,92.40
2018-12-20T05:46:04.438Z,92.40
2018-12-20T05:48:30.332Z,92.30
2018-12-20T05:50:58.982Z,92.30
2018-12-20T05:53:27.585Z,92.30
2018-12-20T05:55:56.132Z,92.50
2018-12-20T05:58:24.740Z,92.30
2018-12-20T06:00:53.327Z,92.20
2018-12-20T06:03:21.717Z,92.30
2018-12-20T06:05:50.416Z,92.50
2018-12-20T06:08:19.283Z,92.40
2018-12-20T06:10:47.709Z,92.40
2018-12-20T06:13:16.342Z,92.30
2018-12-20T06:15:44.836Z,92.30
2018-12-20T06:18:13.527Z,92.30
2018-12-20T06:20:42.120Z,92.30
2018-12-20T06:23:10.669Z,92.30
2018-12-20T06:25:39.121Z,92.30
2018-12-20T06:28:07.463Z,92.20
2018-12-20T06:30:35.905Z,92.20
2018-12-20T06:33:04.301Z,92.20
2018-12-20T06:35:32.730Z,92.20
2018-12-20T06:38:01.086Z,92.10
2018-12-20T06:40:29.418Z,92.10
2018-12-20T06:42:57.758Z,92.20
2018-12-20T06:45:26.294Z,92.20
2018-12-20T06:47:54.634Z,92.20
2018-12-20T06:50:22.976Z,92.20
2018-12-20T06:52:51.341Z,92.20
2018-12-20T06:55:19.697Z,92.20
2018-12-20T06:57:48.040Z,92.20
2018-12-20T07:00:16.386Z,92.20
2018-12-20T07:02:44.730Z,92.10
2018-12-20T07:05:13.119Z,92.20
2018-12-20T07:07:41.610Z,92.20
2018-12-20T07:10:09.952Z,92.10
2018-12-20T07:12:38.481Z,92.10
2018-12-20T07:15:08.854Z,92.20
2018-12-20T07:17:37.327Z,92.20
2018-12-20T07:20:06.593Z,92.20
2018-12-20T07:22:34.973Z,92.30
2018-12-20T07:25:03.733Z,92.30
2018-12-20T07:27:32.091Z,92.30
2018-12-20T07:30:00.436Z,92.30
2018-12-20T07:32:28.967Z,92.20
2018-12-20T07:34:57.312Z,92.30
2018-12-20T07:37:25.652Z,92.30
2018-12-20T07:39:54.279Z,92.30
2018-12-20T07:42:22.707Z,92.20
2018-12-20T07:44:51.106Z,92.20
2018-12-20T07:47:19.492Z,92.20
2018-12-20T07:49:47.850Z,92.10
2018-12-20T07:52:16.207Z,92.10
2018-12-20T07:54:44.549Z,92.10
2018-12-20T07:57:12.879Z,92.20
2018-12-20T07:59:41.227Z,92.30
2018-12-20T08:02:09.877Z,92.20
2018-12-20T08:04:38.243Z,92.20
2018-12-20T08:07:06.579Z,92.20
2018-12-20T08:09:35.364Z,92.20
2018-12-20T08:12:03.724Z,92.20
2018-12-20T08:14:32.053Z,92.20
2018-12-20T08:17:00.402Z,92.20
2018-12-20T08:19:36.048Z,92.20
2018-12-20T08:21:59.193Z,92.20
2018-12-20T08:24:27.558Z,92.20
2018-12-20T08:26:55.968Z,92.30
2018-12-20T08:29:24.340Z,92.20
2018-12-20T08:31:52.689Z,92.30
2018-12-20T08:34:21.051Z,92.30
2018-12-20T08:36:49.491Z,92.30
2018-12-20T08:39:17.819Z,92.20
2018-12-20T08:41:46.170Z,92.30
2018-12-20T08:44:14.528Z,92.30
2018-12-20T08:46:43.886Z,92.30
2018-12-20T08:49:12.224Z,92.30
2018-12-20T08:51:48.763Z,92.40
2018-12-20T08:54:10.960Z,92.30
2018-12-20T08:56:39.358Z,92.30
2018-12-20T08:59:07.706Z,92.30
2018-12-20T09:01:36.059Z,92.20
2018-12-20T09:04:04.426Z,92.30
2018-12-20T09:06:32.792Z,92.30
2018-12-20T09:09:02.018Z,92.40
2018-12-20T09:11:30.385Z,92.40
2018-12-20T09:13:58.740Z,92.50
2018-12-20T09:16:27.099Z,92.40
2018-12-20T09:18:55.476Z,92.60
2018-12-20T09:21:23.863Z,92.50
2018-12-20T09:23:52.299Z,92.60
2018-12-20T09:26:20.820Z,92.50
2018-12-20T09:28:49.208Z,92.60
2018-12-20T09:31:17.694Z,92.90
2018-12-20T09:33:46.033Z,93.00
2018-12-20T09:36:14.584Z,93.00
2018-12-20T09:38:42.947Z,93.20
2018-12-20T09:41:11.297Z,93.50
2018-12-20T09:43:39.753Z,93.80
2018-12-20T09:46:08.101Z,93.60
2018-12-20T09:48:36.493Z,93.40
2018-12-20T09:51:04.855Z,93.30
2018-12-20T09:53:33.604Z,93.40
2018-12-20T09:56:01.955Z,93.70
2018-12-20T09:58:30.295Z,93.60
2018-12-20T10:00:58.631Z,93.70
2018-12-20T10:03:27.212Z,93.60
2018-12-20T10:05:55.570Z,93.60
2018-12-20T10:08:23.942Z,93.50
2018-12-20T10:10:52.353Z,93.20
2018-12-20T10:13:20.723Z,93.10
2018-12-20T10:15:49.077Z,93.00
2018-12-20T10:18:17.477Z,92.90
2018-12-20T10:20:45.951Z,92.90
2018-12-20T10:23:14.317Z,92.60
2018-12-20T10:25:42.661Z,92.70
2018-12-20T10:28:11.009Z,92.70
2018-12-20T10:30:39.350Z,92.70
2018-12-20T10:33:07.703Z,92.70
2018-12-20T10:35:36.340Z,92.80
2018-12-20T10:38:04.686Z,92.60
2018-12-20T10:40:33.065Z,92.60
2018-12-20T10:43:01.730Z,93.00
2018-12-20T10:45:30.184Z,92.70
2018-12-20T10:47:58.755Z,92.60
2018-12-20T10:50:27.323Z,92.80
2018-12-20T10:52:55.926Z,92.80
2018-12-20T10:55:24.404Z,92.70
2018-12-20T10:57:52.764Z,92.80
2018-12-20T11:00:21.143Z,92.70
2018-12-20T11:02:55.312Z,92.70
2018-12-20T11:05:25.685Z,92.90
2018-12-20T11:07:56.705Z,92.50
2018-12-20T11:10:27.688Z,92.80
2018-12-20T11:12:56.049Z,92.50
2018-12-20T11:15:31.755Z,92.90
2018-12-20T11:18:25.052Z,92.60
2018-12-20T11:23:48.253Z,92.20
2018-12-20T11:26:19.380Z,92.60
2018-12-20T11:28:48.178Z,92.60
2018-12-20T11:31:16.535Z,92.60
2018-12-20T11:33:44.931Z,92.50
2018-12-20T11:36:13.402Z,92.70
2018-12-20T11:38:41.759Z,92.50
2018-12-20T11:41:10.263Z,92.60
2018-12-20T11:43:38.737Z,92.70
2018-12-20T11:46:07.084Z,92.90
2018-12-20T11:48:35.532Z,92.60
2018-12-20T11:51:04.093Z,92.50
2018-12-20T11:53:32.444Z,92.60
2018-12-20T11:56:00.799Z,92.60
2018-12-20T11:58:29.151Z,92.30
2018-12-20T12:00:57.499Z,92.40
2018-12-20T12:03:25.864Z,92.20
2018-12-20T12:05:54.655Z,92.40
2018-12-20T12:08:23.009Z,92.00
2018-12-20T12:10:51.355Z,92.40
2018-12-20T12:13:19.702Z,92.70
2018-12-20T12:15:48.050Z,91.90
2018-12-20T12:18:16.558Z,92.20
2018-12-20T12:20:44.950Z,92.10
2018-12-20T12:23:13.321Z,92.20
2018-12-20T12:25:41.681Z,92.50
2018-12-20T12:28:10.270Z,92.20
2018-12-20T12:30:38.846Z,92.10
2018-12-20T12:33:07.197Z,92.20
2018-12-20T12:35:35.553Z,92.30
2018-12-20T12:38:04.087Z,92.20
2018-12-20T12:40:32.452Z,92.00
2018-12-20T12:43:03.466Z,92.00
2018-12-20T12:45:31.820Z,91.80
2018-12-20T12:48:03.505Z,92.20
2018-12-20T12:50:31.511Z,92.30
2018-12-20T12:52:59.879Z,92.10
2018-12-20T12:55:28.271Z,92.30
2018-12-20T12:58:04.414Z,92.40
2018-12-20T13:00:27.021Z,92.40
2018-12-20T13:02:58.510Z,92.20
2018-12-20T13:05:26.940Z,92.20
2018-12-20T13:07:55.311Z,91.90
2018-12-20T13:10:23.660Z,92.00
2018-12-20T13:12:52.025Z,92.30
2018-12-20T13:15:20.382Z,92.00
2018-12-20T13:17:49.209Z,92.40
2018-12-20T13:20:17.592Z,92.30
2018-12-20T13:22:46.249Z,92.20
2018-12-20T13:25:14.639Z,92.10
2018-12-20T13:27:43.231Z,92.10
2018-12-20T13:30:11.811Z,92.30
2018-12-20T13:32:40.161Z,92.00
2018-12-20T13:35:08.500Z,92.00
2018-12-20T13:37:36.851Z,92.30
2018-12-20T13:40:06.528Z,91.90
2018-12-20T13:42:34.886Z,92.20
2018-12-20T13:45:03.675Z,92.00
2018-12-20T13:47:32.092Z,92.50
2018-12-20T13:50:00.456Z,92.20
2018-12-20T13:52:28.940Z,92.30
2018-12-20T13:54:57.432Z,92.10
2018-12-20T13:57:25.799Z,92.00
2018-12-20T13:59:55.137Z,92.00
2018-12-20T14:02:23.597Z,91.90
2018-12-20T14:04:52.128Z,92.60
2018-12-20T14:07:23.001Z,92.20
2018-12-20T14:09:56.938Z,92.20
2018-12-20T14:12:25.398Z,92.40
2018-12-20T14:14:53.832Z,92.50
2018-12-20T14:17:22.192Z,92.30
2018-12-20T14:19:50.531Z,92.70
2018-12-20T14:22:18.874Z,92.40
2018-12-20T14:24:47.598Z,92.70
2018-12-20T14:27:16.054Z,92.50
2018-12-20T14:29:44.442Z,92.60
2018-12-20T14:32:12.944Z,92.40
2018-12-20T14:34:41.310Z,92.50
2018-12-20T14:37:09.673Z,92.50
2018-12-20T14:39:38.278Z,92.50
2018-12-20T14:42:06.628Z,92.60
2018-12-20T14:44:35.015Z,92.20
2018-12-20T14:47:03.718Z,92.50
2018-12-20T14:49:32.076Z,92.50
2018-12-20T14:52:00.640Z,92.40
2018-12-20T14:54:28.999Z,92.50
2018-12-20T14:56:57.376Z,92.30
2018-12-20T14:59:27.369Z,92.30
2018-12-20T15:01:57.672Z,92.20
2018-12-20T15:04:26.304Z,92.40
2018-12-20T15:06:54.670Z,92.50
2018-12-20T15:09:23.031Z,92.30
2018-12-20T15:11:59.078Z,91.90
2018-12-20T15:14:27.434Z,92.10
2018-12-20T15:16:55.838Z,92.80
2018-12-20T15:19:24.200Z,92.20
2018-12-20T15:21:52.572Z,92.30
2018-12-20T15:24:20.947Z,92.30
2018-12-20T15:26:49.309Z,92.20
2018-12-20T15:29:17.666Z,92.40
2018-12-20T15:31:53.194Z,92.20
2018-12-20T15:34:16.421Z,92.20
2018-12-20T15:36:44.776Z,92.40
2018-12-20T15:39:13.163Z,92.20
2018-12-20T15:41:41.558Z,92.40
2018-12-20T15:44:10.017Z,92.30
2018-12-20T15:46:38.377Z,92.40
2018-12-20T15:49:06.771Z,92.40
2018-12-20T15:51:35.127Z,92.40
2018-12-20T15:54:03.490Z,92.50
2018-12-20T15:56:31.906Z,92.40
2018-12-20T15:59:00.544Z,92.30
2018-12-20T16:01:28.884Z,92.70
2018-12-20T16:03:57.374Z,92.30
2018-12-20T16:06:25.753Z,92.30
2018-12-20T16:08:54.108Z,92.30
2018-12-20T16:11:22.581Z,92.20
2018-12-20T16:13:51.087Z,92.40
2018-12-20T16:16:19.439Z,92.70
2018-12-20T16:18:48.156Z,92.60
2018-12-20T16:21:16.527Z,92.40
2018-12-20T16:23:45.118Z,92.70
2018-12-20T16:26:13.461Z,92.40
2018-12-20T16:28:41.862Z,92.80
2018-12-20T16:31:10.222Z,92.70
2018-12-20T16:33:38.588Z,92.00
2018-12-20T16:36:07.014Z,92.00
2018-12-20T16:38:35.368Z,92.50
2018-12-20T16:41:03.868Z,93.20
2018-12-20T16:43:32.250Z,92.60
2018-12-20T16:46:00.682Z,92.30
2018-12-20T16:48:29.036Z,92.30
2018-12-20T16:50:57.483Z,92.70
2018-12-20T16:53:25.848Z,93.50
2018-12-20T16:55:54.229Z,93.70
2018-12-20T16:58:22.588Z,93.40
2018-12-20T17:00:50.953Z,92.80
2018-12-20T17:03:19.376Z,92.30
2018-12-20T17:05:47.960Z,92.60
2018-12-20T17:08:16.451Z,92.30
2018-12-20T17:10:44.838Z,92.70
2018-12-20T17:13:13.203Z,92.80
2018-12-20T17:15:41.552Z,93.10
2018-12-20T17:18:09.923Z,93.00
2018-12-20T17:20:38.331Z,93.00
2018-12-20T17:23:06.812Z,93.00
2018-12-20T17:25:35.168Z,93.20
2018-12-20T17:28:03.645Z,93.70
2018-12-20T17:30:31.988Z,93.30
2018-12-20T17:33:00.399Z,93.10
2018-12-20T17:35:28.757Z,93.50
2018-12-20T17:37:57.135Z,93.00
2018-12-20T17:40:25.496Z,93.10
2018-12-20T17:42:53.883Z,93.20
2018-12-20T17:45:22.319Z,93.30
2018-12-20T17:47:50.914Z,92.80
2018-12-20T17:50:19.293Z,93.10
2018-12-20T17:52:47.663Z,93.00
2018-12-20T17:55:16.150Z,94.70
2018-12-20T17:57:44.594Z,95.10
2018-12-20T18:00:13.819Z,94.60
2018-12-20T18:02:42.223Z,94.40
2018-12-20T18:05:10.787Z,94.30
2018-12-20T18:07:39.272Z,94.20
2018-12-20T18:10:09.184Z,94.00
2018-12-20T18:12:37.659Z,94.00
2018-12-20T18:15:08.368Z,93.90
2018-12-20T18:17:36.736Z,93.80
2018-12-20T18:20:06.334Z,93.50
2018-12-20T18:22:34.699Z,93.50
2018-12-20T18:25:03.175Z,93.50
2018-12-20T18:27:31.539Z,93.50
2018-12-20T18:30:00.526Z,93.30
2018-12-20T18:32:29.061Z,93.20
2018-12-20T18:34:57.551Z,93.00
2018-12-20T18:37:25.929Z,93.00
2018-12-20T18:39:54.292Z,93.20
2018-12-20T18:42:22.711Z,93.00
2018-12-20T18:44:51.088Z,93.00
2018-12-20T18:47:19.450Z,93.10
2018-12-20T18:49:48.116Z,93.10
2018-12-20T18:52:17.844Z,93.10
2018-12-20T18:54:46.500Z,93.10
2018-12-20T18:57:15.024Z,93.00
2018-12-20T18:59:43.608Z,93.10
2018-12-20T19:02:11.961Z,93.10
2018-12-20T19:04:41.282Z,93.00
2018-12-20T19:07:09.763Z,93.10
2018-12-20T19:09:38.539Z,93.10
2018-12-20T19:12:06.914Z,93.00
2018-12-20T19:14:35.326Z,93.10
2018-12-20T19:17:03.777Z,93.10
2018-12-20T19:19:32.253Z,93.10
2018-12-20T19:22:00.762Z,93.10
2018-12-20T19:24:29.142Z,93.20
2018-12-20T19:26:57.609Z,93.10
2018-12-20T19:29:25.983Z,93.20
2018-12-20T19:31:54.370Z,93.30
2018-12-20T19:34:22.845Z,93.10
2018-12-20T19:36:51.209Z,93.20
2018-12-20T19:39:19.569Z,93.00
2018-12-20T19:41:48.083Z,93.20
2018-12-20T19:44:16.454Z,93.10
2018-12-20T19:46:45.254Z,93.10
2018-12-20T19:49:14.259Z,93.20
2018-12-20T19:51:43.360Z,93.10
2018-12-20T19:54:11.839Z,93.10
2018-12-20T19:56:40.392Z,93.10
2018-12-20T19:59:09.500Z,93.10
2018-12-20T20:01:37.978Z,93.00
2018-12-20T20:04:06.324Z,93.10
2018-12-20T20:06:34.703Z,93.10
2018-12-20T20:09:04.425Z,93.00
2018-12-20T20:11:34.243Z,93.10
2018-12-20T20:14:02.842Z,93.10
2018-12-20T20:16:31.477Z,93.00
2018-12-20T20:19:00.174Z,93.20
2018-12-20T20:21:28.691Z,93.10
2018-12-20T20:23:57.088Z,93.20
2018-12-20T20:26:25.653Z,93.10
2018-12-20T20:28:54.024Z,93.20
2018-12-20T20:31:22.549Z,93.10
2018-12-20T20:33:50.926Z,93.50
2018-12-20T20:36:19.350Z,93.20
2018-12-20T20:38:47.709Z,93.20
2018-12-20T20:41:16.335Z,93.20
2018-12-20T20:43:44.826Z,93.20
2018-12-20T20:46:13.399Z,93.30
2018-12-20T20:48:42.902Z,93.30
2018-12-20T20:51:11.270Z,93.30
2018-12-20T20:53:39.863Z,93.30
2018-12-20T20:56:08.347Z,93.30
2018-12-20T20:58:40.933Z,93.20
2018-12-20T21:01:10.570Z,93.30
2018-12-20T21:03:39.220Z,93.20
2018-12-20T21:06:11.680Z,93.30
2018-12-20T21:08:40.052Z,93.30
2018-12-20T21:11:08.451Z,93.30
2018-12-20T21:13:36.988Z,93.20
2018-12-20T21:16:06.474Z,93.40
2018-12-20T21:18:34.839Z,93.30
2018-12-20T21:21:03.209Z,93.40
2018-12-20T21:23:31.894Z,93.40
2018-12-20T21:26:00.360Z,93.40
2018-12-20T21:28:29.554Z,93.40
2018-12-20T21:30:58.851Z,93.40
2018-12-20T21:33:27.223Z,93.40
2018-12-20T21:35:55.811Z,93.30
2018-12-20T21:38:24.295Z,93.30
2018-12-20T21:40:52.664Z,93.40
2018-12-20T21:43:21.168Z,93.60
2018-12-20T21:45:49.515Z,93.50
2018-12-20T21:48:17.910Z,93.50
2018-12-20T21:50:46.396Z,93.50
2018-12-20T21:53:14.752Z,93.40
2018-12-20T21:55:43.144Z,93.40
2018-12-20T21:58:11.632Z,93.50
2018-12-20T22:00:40.063Z,93.40
2018-12-20T22:03:08.428Z,93.40
2018-12-20T22:05:38.373Z,93.60
2018-12-20T22:08:06.707Z,93.50
2018-12-20T22:10:35.432Z,93.50
2018-12-20T22:13:03.848Z,93.50
2018-12-20T22:15:32.231Z,93.60
2018-12-20T22:18:00.745Z,93.60
2018-12-20T22:20:29.158Z,93.90
2018-12-20T22:22:57.561Z,93.60
2018-12-20T22:25:26.085Z,94.00
2018-12-20T22:27:54.553Z,93.70
2018-12-20T22:30:23.010Z,93.70
2018-12-20T22:32:51.593Z,93.60
2018-12-20T22:35:20.169Z,93.80
2018-12-20T22:37:48.542Z,93.70
2018-12-20T22:40:17.131Z,93.50
2018-12-20T22:42:45.480Z,93.80
2018-12-20T22:45:14.208Z,93.80
2018-12-20T22:47:42.579Z,93.70
2018-12-20T22:50:11.440Z,93.70
2018-12-20T22:52:39.788Z,93.70
2018-12-20T22:55:08.173Z,93.80
2018-12-20T22:57:36.615Z,93.80
2018-12-20T23:00:06.207Z,93.80
2018-12-20T23:02:34.686Z,93.80
2018-12-20T23:05:03.178Z,93.80
2018-12-20T23:07:31.544Z,93.90
2018-12-20T23:09:59.997Z,93.70
2018-12-20T23:12:28.609Z,93.90
2018-12-20T23:14:56.998Z,93.80
2018-12-20T23:17:25.476Z,93.70
2018-12-20T23:19:53.848Z,93.80
2018-12-20T23:22:22.332Z,93.80
2018-12-20T23:24:50.710Z,93.80
2018-12-20T23:27:19.076Z,93.80
2018-12-20T23:29:47.473Z,93.80
2018-12-20T23:32:15.862Z,94.00
2018-12-20T23:34:44.325Z,94.00
2018-12-20T23:37:12.689Z,93.80
2018-12-20T23:39:41.484Z,93.90
2018-12-20T23:42:09.916Z,93.80
2018-12-20T23:44:38.286Z,93.80
2018-12-20T23:47:07.134Z,93.90
2018-12-20T23:49:35.496Z,93.90
2018-12-20T23:52:04.064Z,93.80
2018-12-20T23:54:32.579Z,93.80
2018-12-20T23:57:00.949Z,93.90
2018-12-20T23:59:29.306Z,93.90
